Araz River — UHYN — position and weather

sailwx.info

Track history (hours):
 
Tides and Currents Weather Stations Pressure Air Temp Water Temp Dewpoint Dewpoint Depression Visibility Wind Speed Wind Dir Waves Ship Positions

Araz River

Last reported at 2017-Dec-09 01:37 UTC. Time now 2017-Dec-13 11:27 UTC.
Position N 43°34' E 029°38'.

Length 140 m; draft 4.5 m.

Type: Ship. MMSI: 273339920.

Date/timePositionNaut miles runAvg speedWind from/ knotsBaromVisibWave heightAir tempDewpointWater temp
2017-Dec-09 01:37N 43°34' E 029°38'3 7.8
2017-Dec-09 01:13N 43°37' E 029°39'2 7.9
2017-Dec-09 01:00N 43°38' E 029°39'4 7.9
2017-Dec-09 00:29N 43°42' E 029°40'4 8.2
2017-Dec-09 00:00N 43°46' E 029°41'4 8.2
2017-Dec-08 23:30N 43°50' E 029°42'4 7.9
2017-Dec-08 23:00N 43°54' E 029°43'4 7.9
2017-Dec-08 22:30N 43°58' E 029°44'4 7.7
2017-Dec-08 22:00N 44°02' E 029°45'4 7.5
2017-Dec-08 21:30N 44°06' E 029°46'4 7.9
2017-Dec-08 21:00N 44°09' E 029°46'4 7.8
2017-Dec-08 20:30N 44°13' E 029°47'4 7.8
2017-Dec-08 20:00N 44°17' E 029°48'4 7.7
2017-Dec-08 19:30N 44°21' E 029°49'4 7.7
2017-Dec-08 19:00N 44°25' E 029°50'4 7.6
2017-Dec-08 18:30N 44°28' E 029°51'5 7.7
2017-Dec-08 17:55N 44°33' E 029°52'  
Track history (hours):
 
Tides and Currents Weather Stations Pressure Air Temp Water Temp Dewpoint Dewpoint Depression Visibility Wind Speed Wind Dir Waves Ship Positions

Araz River

Last reported at 2017-Dec-09 01:37 UTC. Time now 2017-Dec-13 11:27 UTC.
Position N 43°34' E 029°38'.

Length 140 m; draft 4.5 m.

Type: Ship. MMSI: 273339920.

Date/timePositionNaut miles runAvg speedWind from/ knotsBaromVisibWave heightAir tempDewpointWater temp
2017-Dec-09 01:37N 43°34' E 029°38'3 7.8
2017-Dec-09 01:13N 43°37' E 029°39'2 7.9
2017-Dec-09 01:00N 43°38' E 029°39'4 7.9
2017-Dec-09 00:29N 43°42' E 029°40'4 8.2
2017-Dec-09 00:00N 43°46' E 029°41'4 8.2
2017-Dec-08 23:30N 43°50' E 029°42'4 7.9
2017-Dec-08 23:00N 43°54' E 029°43'4 7.9
2017-Dec-08 22:30N 43°58' E 029°44'4 7.7
2017-Dec-08 22:00N 44°02' E 029°45'4 7.5
2017-Dec-08 21:30N 44°06' E 029°46'4 7.9
2017-Dec-08 21:00N 44°09' E 029°46'4 7.8
2017-Dec-08 20:30N 44°13' E 029°47'4 7.8
2017-Dec-08 20:00N 44°17' E 029°48'4 7.7
2017-Dec-08 19:30N 44°21' E 029°49'4 7.7
2017-Dec-08 19:00N 44°25' E 029°50'4 7.6
2017-Dec-08 18:30N 44°28' E 029°51'5 7.7
2017-Dec-08 17:55N 44°33' E 029°52'  

Dump ship's entire track history